Latest METARs, TAFs and NOTAMs for SKCL


---------------------------------------------------------------------------
	(OBSERVATIONS)
SKCL 210100Z 35004KT 9999 FEW025 SCT100 BKN300 25/17 A2996=
SKCL 210000Z 34009KT 9999 FEW030 SCT120 BKN300 25/17 A2992=
SKCL 202300Z 35011KT 9999 FEW030 SCT120 BKN300 26/16 A2990=
---------------------------------------------------------------------------
	(TERMINAL AREA FORECAST)
SKCL 202200Z 210024 VRB02KT 9999 FEW020 BKN080
    TEMPO 2100/2102 VCSH
    TEMPO 2101/2105 8000 DZRA SCT018TCU
    PROB30 TEMPO 2109/2113 7000 BR VCSH SCT015
    TEMPO 2119/2123 29010KT SCT017TCU
    TX32/2118Z TN19/2111Z=
---------------------------------------------------------------------------
	(NOTAMS)


SKCL A3023/14 FLIGHT PLAN PROCESSING AND FILING FPL LTD DUE TO
    FAILURE CLO (CALI)FDP (FLIGHT DATA PROCESSING. 08 OCT 15:20
    2014 UNTIL 08 JAN 23:59 2015 ESTIMATED. CREATED: 01 NOV 01:42
    2014

SKCL A3153/14 RWY 01/19 TURNING BAY LTD, ACFT PROHIBITED PARALLEL
    OR ONE SURPASSES THE OTHER ACFT, EXER CTN. H24, 22 OCT 14:15
    2014 UNTIL 31 JAN 23:59 2015. CREATED: 22 OCT 14:17 2014

SKCL A3154/14 APRON, CARGO APRON AND DECONGESTION APRON WIP,
    EXER CTN. H24, 22 OCT 14:25 2014 UNTIL 31 JAN 23:59 2015.
    CREATED: 22 OCT 14:22 2014

SKCL A3155/14 TWY A,B,C,C1,C2,D,E,F,G WIP, EXER CTN. H24, 22
    OCT 14:30 2014 UNTIL 31 JAN 23:59 2015. CREATED: 22 OCT 14:26
    2014

SKCL A3174/14 RWY 01/19 WIP, EXER CTN. 0530-1030, 24 OCT 05:30
    2014 UNTIL 30 DEC 10:30 2014. CREATED: 23 OCT 18:05 2014

SKCL A3323/14 SEQUENCED FLG LGT RWY 01 U/S. 04 NOV 13:59 2014
    UNTIL 04 FEB 23:59 2015 ESTIMATED. CREATED: 04 NOV 13:59
    2014

SKCL A3500/14 MOV AREA WO VERTICAL SIGNALLING, EXER CTN. DAILY
    H24, 19 NOV 15:30 2014 UNTIL 28 FEB 11:00 2015. CREATED:
    01 DEC 09:49 2014

SKCL A3807/14 ACFT STAND 10 CLSD. H24, 18 DEC 17:25 2014 UNTIL
    30 DEC 23:59 2014. CREATED: 18 DEC 17:29 2014

SKCL A3809/14 DLY BTN 1100-1300 AND 0130-0500 NO FLT TRAINING
    RWY 01/19 ARE ALLOWED, HR INDICATED REF. AIP COLOMBIA AD
    2 SKCL 3 ITEM 20. 18 DEC 17:40 2014 UNTIL PERM. CREATED:
    18 DEC 20:23 2014

SKCL V0133/14 [DOD PROCEDURAL NOTAM] INSTRUMENT APPROACH PROCEDURE
    NOT AUTHORIZED DUE TO HOST UPDATE: ILS RWY 01 AMDT 1, VOR
    RWY 19 ORIG, ANKIN 5A, 5B DEP, BUN 6A DEP, BUN 6C DEP NA
    UFN. 17 OCT 00:44 2014 UNTIL 08 JAN 23:59 2015. CREATED:
    17 OCT 00:47 2014

---------------------------------------------------------------------------